Погода Анахаймна неделю

Калифорния, США

01 - 07 сентября
  • 01сентября
    Сегодня
    +18°
    +29°
    Ясно и безоблачно
    ВремяПогодаТемператураВлажностьДавлениеВетер, м/сВероятность осадков
    02:00Ясно и безоблачно+20°C77 %757 мм0.4 м/с2 %
    05:00Ясно и безоблачно+20°C81 %756 мм0.1 м/с2 %
    08:00Ясно и безоблачно+21°C76 %757 мм0.3 м/с2 %
    11:00Ясно и безоблачно+26°C51 %758 мм1.6 м/с2 %
    14:00Ясно и безоблачно+28°C42 %757 мм3.5 м/с2 %
    17:00Ясно и безоблачно+27°C44 %756 мм3.8 м/с2 %
    20:00Ясно и безоблачно+22°C58 %756 мм2.4 м/с2 %
    23:00Ясно и безоблачно+20°C70 %757 мм0.9 м/с2 %
  • 02сентября
    Среда
    +19°
    +29°
    Ясно и безоблачно
    ВремяПогодаТемператураВлажностьДавлениеВетер, м/сВероятность осадков
    02:00Ясно и безоблачно+19°C73 %758 мм0.4 м/с2 %
    05:00Ясно и безоблачно+19°C76 %757 мм0.1 м/с2 %
    08:00Ясно и безоблачно+20°C71 %758 мм0.5 м/с2 %
    11:00Ясно и безоблачно+25°C51 %758 мм1.7 м/с2 %
    14:00Ясно и безоблачно+28°C42 %757 мм3.5 м/с2 %
    17:00Ясно и безоблачно+27°C43 %756 мм3.9 м/с2 %
    20:00Ясно и безоблачно+23°C54 %756 мм2.3 м/с2 %
    23:00Ясно и безоблачно+21°C67 %757 мм0.8 м/с2 %
  • 03сентября
    Четверг
    +18°
    +28°
    Ясно и безоблачно
    ВремяПогодаТемператураВлажностьДавлениеВетер, м/сВероятность осадков
    02:00Ясно и безоблачно+20°C73 %756 мм0.9 м/с2 %
    05:00Практически безоблачно+19°C79 %756 мм0.8 м/с2 %
    08:00Практически безоблачно+21°C72 %757 мм1.3 м/с2 %
    11:00Ясно и безоблачно+25°C53 %756 мм2.1 м/с2 %
    14:00Ясно и безоблачно+27°C48 %755 мм3.8 м/с2 %
    17:00Ясно и безоблачно+26°C52 %754 мм3.8 м/с2 %
    20:00Ясно и безоблачно+23°C63 %754 мм2.5 м/с2 %
    23:00Ясно и безоблачно+21°C73 %755 мм0.9 м/с2 %
  • 04сентября
    Пятница
    +19°
    +29°
    Ясно и безоблачно
    ВремяПогодаТемператураВлажностьДавлениеВетер, м/сВероятность осадков
    02:00Практически безоблачно+20°C77 %755 мм1.1 м/с2 %
    05:00Практически безоблачно+19°C81 %755 мм0.6 м/с2 %
    08:00Практически безоблачно+21°C75 %756 мм0.7 м/с2 %
    11:00Ясно и безоблачно+26°C51 %756 мм1.6 м/с2 %
    14:00Ясно и безоблачно+28°C43 %755 мм3.4 м/с2 %
    17:00Ясно и безоблачно+27°C44 %754 мм3.3 м/с2 %
    20:00Ясно и безоблачно+23°C66 %755 мм2.3 м/с2 %
    23:00Ясно и безоблачно+21°C77 %756 мм0.8 м/с2 %
  • 05сентября
    Суббота
    +21°
    +31°
    Ясно и безоблачно
    ВремяПогодаТемператураВлажностьДавлениеВетер, м/сВероятность осадков
    02:00Ясно и безоблачно+20°C78 %755 мм0.2 м/с4 %
    05:00Ясно и безоблачно+19°C82 %755 мм0.0 м/с7 %
    08:00Ясно и безоблачно+21°C74 %756 мм0.0 м/с12 %
    11:00Ясно и безоблачно+28°C44 %756 мм1.4 м/с15 %
    14:00Ясно и безоблачно+31°C34 %755 мм3.4 м/с20 %
    17:00Ясно и безоблачно+29°C37 %754 мм3.7 м/с19 %
    20:00Ясно и безоблачно+25°C57 %755 мм2.2 м/с16 %
    23:00Небольшая облачность+24°C68 %756 мм0.7 м/с22 %
  • 06сентября
    Воскресенье
    +19°
    +32°
    Ясно и безоблачно
    ВремяПогодаТемператураВлажностьДавлениеВетер, м/сВероятность осадков
    05:00Практически безоблачно+22°C75 %755 мм0.2 м/с26 %
    11:00Ясно и безоблачно+29°C53 %756 мм0.8 м/с29 %
    17:00Ясно и безоблачно+31°C55 %754 мм2.4 м/с31 %
    23:00Ясно и безоблачно+23°C65 %755 мм1.8 м/с24 %
  • 07сентября
    Понедельник
    +18°
    +31°
    Ясно и безоблачно
    ВремяПогодаТемператураВлажностьДавлениеВетер, м/сВероятность осадков
    05:00Ясно и безоблачно+20°C80 %755 мм1.4 м/с16 %
    11:00Ясно и безоблачно+27°C44 %756 мм2.4 м/с22 %
    17:00Ясно и безоблачно+28°C37 %754 мм4.6 м/с21 %
    23:00Ясно и безоблачно+21°C75 %755 мм1.8 м/с15 %
Мы используем cookies
Соглашаюсь